sensor_id;sensor_type;location;lat;lon;timestamp;pressure;altitude;pressure_sealevel;temperature;humidity
58311;BME280;45001;52.218;5.154;2022-07-23T00:01:02;101996.47;;;22.98;49.13
58311;BME280;45001;52.218;5.154;2022-07-23T00:03:27;101989.34;;;22.97;48.94
58311;BME280;45001;52.218;5.154;2022-07-23T00:05:53;101992.69;;;22.99;48.86
58311;BME280;45001;52.218;5.154;2022-07-23T00:08:18;101985.78;;;22.97;49.15
58311;BME280;45001;52.218;5.154;2022-07-23T00:10:43;101986.63;;;22.97;49.11
58311;BME280;45001;52.218;5.154;2022-07-23T00:13:09;101987.25;;;22.99;48.99
58311;BME280;45001;52.218;5.154;2022-07-23T00:15:34;101986.63;;;22.97;49.00
58311;BME280;45001;52.218;5.154;2022-07-23T00:17:59;101986.63;;;22.97;48.96
58311;BME280;45001;52.218;5.154;2022-07-23T00:20:24;101981.56;;;22.94;49.00
58311;BME280;45001;52.218;5.154;2022-07-23T00:22:54;101982.63;;;22.93;49.17
58311;BME280;45001;52.218;5.154;2022-07-23T00:25:20;101980.94;;;22.92;49.00
58311;BME280;45001;52.218;5.154;2022-07-23T00:27:46;101978.22;;;22.92;48.77
58311;BME280;45001;52.218;5.154;2022-07-23T00:30:13;101979.09;;;22.93;49.13
58311;BME280;45001;52.218;5.154;2022-07-23T00:35:12;101973.66;;;22.93;48.95
58311;BME280;45001;52.218;5.154;2022-07-23T00:37:38;101965.88;;;22.90;49.03
58311;BME280;45001;52.218;5.154;2022-07-23T00:40:03;101972.16;;;22.90;49.16
58311;BME280;45001;52.218;5.154;2022-07-23T00:42:31;101973.41;;;22.88;49.18
58311;BME280;45001;52.218;5.154;2022-07-23T00:44:56;101965.88;;;22.90;49.06
58311;BME280;45001;52.218;5.154;2022-07-23T00:47:21;101966.91;;;22.89;48.69
58311;BME280;45001;52.218;5.154;2022-07-23T00:49:46;101960.66;;;22.88;49.02
58311;BME280;45001;52.218;5.154;2022-07-23T00:52:12;101964.44;;;22.87;49.05
58311;BME280;45001;52.218;5.154;2022-07-23T00:54:38;101960.66;;;22.88;49.09
58311;BME280;45001;52.218;5.154;2022-07-23T00:57:03;101960.03;;;22.86;49.11
58311;BME280;45001;52.218;5.154;2022-07-23T00:59:29;101961.91;;;22.86;49.05
58311;BME280;45001;52.218;5.154;2022-07-23T01:01:54;101957.69;;;22.83;49.27
58311;BME280;45001;52.218;5.154;2022-07-23T01:04:19;101947.50;;;22.85;49.25
58311;BME280;45001;52.218;5.154;2022-07-23T01:06:45;101957.69;;;22.83;48.97
58311;BME280;45001;52.218;5.154;2022-07-23T01:09:10;101954.97;;;22.83;49.19
58311;BME280;45001;52.218;5.154;2022-07-23T01:11:36;101946.00;;;22.82;49.12
58311;BME280;45001;52.218;5.154;2022-07-23T01:14:15;101944.53;;;22.80;49.12
58311;BME280;45001;52.218;5.154;2022-07-23T01:16:42;101944.75;;;22.78;49.20
58311;BME280;45001;52.218;5.154;2022-07-23T01:19:08;101930.94;;;22.80;48.94
58311;BME280;45001;52.218;5.154;2022-07-23T01:21:39;101930.75;;;22.81;49.06
58311;BME280;45001;52.218;5.154;2022-07-23T01:24:06;101946.44;;;22.79;49.22
58311;BME280;45001;52.218;5.154;2022-07-23T01:26:31;101938.91;;;22.81;49.01
58311;BME280;45001;52.218;5.154;2022-07-23T01:28:56;101931.34;;;22.77;48.83
58311;BME280;45001;52.218;5.154;2022-07-23T01:31:22;101923.81;;;22.79;49.16
58311;BME280;45001;52.218;5.154;2022-07-23T01:33:48;101933.44;;;22.75;49.10
58311;BME280;45001;52.218;5.154;2022-07-23T01:36:14;101932.19;;;22.77;48.93
58311;BME280;45001;52.218;5.154;2022-07-23T01:38:39;101932.19;;;22.77;48.90
58311;BME280;45001;52.218;5.154;2022-07-23T01:41:05;101924.25;;;22.76;49.05
58311;BME280;45001;52.218;5.154;2022-07-23T01:43:30;101917.75;;;22.77;49.01
58311;BME280;45001;52.218;5.154;2022-07-23T01:45:55;101927.16;;;22.74;49.11
58311;BME280;45001;52.218;5.154;2022-07-23T01:48:21;101933.63;;;22.73;49.14
58311;BME280;45001;52.218;5.154;2022-07-23T01:50:47;101928.00;;;22.75;49.06
58311;BME280;45001;52.218;5.154;2022-07-23T01:53:13;101933.84;;;22.72;49.08
58311;BME280;45001;52.218;5.154;2022-07-23T01:55:39;101929.47;;;22.71;49.11
58311;BME280;45001;52.218;5.154;2022-07-23T01:58:04;101931.97;;;22.72;49.17
58311;BME280;45001;52.218;5.154;2022-07-23T02:00:31;101933.19;;;22.70;49.21
58311;BME280;45001;52.218;5.154;2022-07-23T02:02:56;101924.03;;;22.71;49.04
58311;BME280;45001;52.218;5.154;2022-07-23T02:05:23;101925.69;;;22.72;49.10
58311;BME280;45001;52.218;5.154;2022-07-23T02:07:49;101921.69;;;22.68;49.15
58311;BME280;45001;52.218;5.154;2022-07-23T02:10:14;101928.19;;;22.67;49.16
58311;BME280;45001;52.218;5.154;2022-07-23T02:12:40;101923.78;;;22.65;49.12
58311;BME280;45001;52.218;5.154;2022-07-23T02:15:06;101928.63;;;22.70;49.14
58311;BME280;45001;52.218;5.154;2022-07-23T02:17:31;101924.84;;;22.64;49.19
58311;BME280;45001;52.218;5.154;2022-07-23T02:19:57;101924.84;;;22.64;49.24
58311;BME280;45001;52.218;5.154;2022-07-23T02:22:23;101929.22;;;22.65;49.07
58311;BME280;45001;52.218;5.154;2022-07-23T02:24:48;101915.84;;;22.64;49.20
58311;BME280;45001;52.218;5.154;2022-07-23T02:27:13;101921.28;;;22.64;49.03
58311;BME280;45001;52.218;5.154;2022-07-23T02:29:39;101917.72;;;22.63;49.11
58311;BME280;45001;52.218;5.154;2022-07-23T02:32:04;101921.28;;;22.64;49.10
58311;BME280;45001;52.218;5.154;2022-07-23T02:34:29;101927.56;;;22.64;48.87
58311;BME280;45001;52.218;5.154;2022-07-23T02:36:55;101926.69;;;22.64;48.90
58311;BME280;45001;52.218;5.154;2022-07-23T02:39:20;101932.34;;;22.62;48.97
58311;BME280;45001;52.218;5.154;2022-07-23T02:41:45;101940.50;;;22.62;49.04
58311;BME280;45001;52.218;5.154;2022-07-23T02:44:11;101946.38;;;22.59;49.16
58311;BME280;45001;52.218;5.154;2022-07-23T02:46:36;101939.66;;;22.62;48.99
58311;BME280;45001;52.218;5.154;2022-07-23T02:49:02;101935.06;;;22.62;49.00
58311;BME280;45001;52.218;5.154;2022-07-23T02:51:29;101946.75;;;22.56;49.06
58311;BME280;45001;52.218;5.154;2022-07-23T02:53:54;101948.44;;;22.57;49.07
58311;BME280;45001;52.218;5.154;2022-07-23T02:56:20;101941.75;;;22.60;48.80
58311;BME280;45001;52.218;5.154;2022-07-23T02:58:45;101954.91;;;22.56;49.16
58311;BME280;45001;52.218;5.154;2022-07-23T03:01:10;101959.31;;;22.57;48.98
58311;BME280;45001;52.218;5.154;2022-07-23T03:03:36;101954.09;;;22.56;49.03
58311;BME280;45001;52.218;5.154;2022-07-23T03:06:01;101953.44;;;22.54;49.12
58311;BME280;45001;52.218;5.154;2022-07-23T03:08:26;101946.13;;;22.54;48.90
58311;BME280;45001;52.218;5.154;2022-07-23T03:10:51;101941.31;;;22.56;48.92
58311;BME280;45001;52.218;5.154;2022-07-23T03:13:17;101950.94;;;22.52;49.06
58311;BME280;45001;52.218;5.154;2022-07-23T03:15:42;101958.88;;;22.54;48.97
58311;BME280;45001;52.218;5.154;2022-07-23T03:18:07;101955.09;;;22.48;48.69
58311;BME280;45001;52.218;5.154;2022-07-23T03:20:32;101960.09;;;22.51;49.00
58311;BME280;45001;52.218;5.154;2022-07-23T03:22:58;101956.38;;;22.52;49.03
58311;BME280;45001;52.218;5.154;2022-07-23T03:25:23;101950.09;;;22.52;48.84
58311;BME280;45001;52.218;5.154;2022-07-23T03:27:49;101949.25;;;22.51;49.00
58311;BME280;45001;52.218;5.154;2022-07-23T03:30:14;101946.75;;;22.50;48.98
58311;BME280;45001;52.218;5.154;2022-07-23T03:32:39;101962.63;;;22.46;49.02
58311;BME280;45001;52.218;5.154;2022-07-23T03:35:05;101958.84;;;22.47;49.00
58311;BME280;45001;52.218;5.154;2022-07-23T03:37:30;101949.47;;;22.50;48.83
58311;BME280;45001;52.218;5.154;2022-07-23T03:39:55;101950.69;;;22.47;49.02
58311;BME280;45001;52.218;5.154;2022-07-23T03:42:21;101949.88;;;22.47;49.01
58311;BME280;45001;52.218;5.154;2022-07-23T03:44:46;101947.97;;;22.47;49.00
58311;BME280;45001;52.218;5.154;2022-07-23T03:47:11;101945.69;;;22.44;49.13
58311;BME280;45001;52.218;5.154;2022-07-23T03:49:37;101941.09;;;22.44;48.92
58311;BME280;45001;52.218;5.154;2022-07-23T03:52:03;101940.03;;;22.45;49.09
58311;BME280;45001;52.218;5.154;2022-07-23T03:54:28;101935.84;;;22.43;48.86
58311;BME280;45001;52.218;5.154;2022-07-23T03:56:54;101933.94;;;22.43;48.94
58311;BME280;45001;52.218;5.154;2022-07-23T03:59:19;101939.00;;;22.47;48.89
58311;BME280;45001;52.218;5.154;2022-07-23T04:01:44;101932.09;;;22.44;48.89
58311;BME280;45001;52.218;5.154;2022-07-23T04:04:10;101923.28;;;22.42;48.82
58311;BME280;45001;52.218;5.154;2022-07-23T04:06:35;101923.50;;;22.40;49.04
58311;BME280;45001;52.218;5.154;2022-07-23T04:09:01;101932.50;;;22.41;48.83
58311;BME280;45001;52.218;5.154;2022-07-23T04:11:27;101935.84;;;22.43;49.03
58311;BME280;45001;52.218;5.154;2022-07-23T04:13:52;101940.66;;;22.41;48.96
58311;BME280;45001;52.218;5.154;2022-07-23T04:16:17;101945.03;;;22.42;48.83
58311;BME280;45001;52.218;5.154;2022-07-23T04:18:43;101941.66;;;22.40;48.99
58311;BME280;45001;52.218;5.154;2022-07-23T04:21:08;101946.47;;;22.38;48.87
58311;BME280;45001;52.218;5.154;2022-07-23T04:23:34;101941.88;;;22.38;49.19
58311;BME280;45001;52.218;5.154;2022-07-23T04:25:59;101946.47;;;22.38;48.80
58311;BME280;45001;52.218;5.154;2022-07-23T04:28:25;101944.59;;;22.38;48.96
58311;BME280;45001;52.218;5.154;2022-07-23T04:30:50;101947.09;;;22.40;48.99
58311;BME280;45001;52.218;5.154;2022-07-23T04:33:15;101943.13;;;22.36;49.02
58311;BME280;45001;52.218;5.154;2022-07-23T04:35:40;101954.63;;;22.38;48.85
58311;BME280;45001;52.218;5.154;2022-07-23T04:38:06;101949.19;;;22.38;48.97
58311;BME280;45001;52.218;5.154;2022-07-23T04:40:31;101948.16;;;22.39;48.86
58311;BME280;45001;52.218;5.154;2022-07-23T04:42:57;101952.97;;;22.37;48.93
58311;BME280;45001;52.218;5.154;2022-07-23T04:45:22;101954.81;;;22.36;48.72
58311;BME280;45001;52.218;5.154;2022-07-23T04:47:50;101965.06;;;22.34;48.97
58311;BME280;45001;52.218;5.154;2022-07-23T04:50:15;101963.84;;;22.37;49.04
58311;BME280;45001;52.218;5.154;2022-07-23T04:52:44;101961.50;;;22.34;48.93
58311;BME280;45001;52.218;5.154;2022-07-23T04:55:10;101965.06;;;22.34;49.08
58311;BME280;45001;52.218;5.154;2022-07-23T04:57:35;101962.34;;;22.34;49.04
58311;BME280;45001;52.218;5.154;2022-07-23T05:00:01;101964.84;;;22.36;49.06
58311;BME280;45001;52.218;5.154;2022-07-23T05:02:26;101968.19;;;22.31;49.19
58311;BME280;45001;52.218;5.154;2022-07-23T05:04:52;101965.25;;;22.33;49.03
58311;BME280;45001;52.218;5.154;2022-07-23T05:07:17;101960.88;;;22.32;48.95
58311;BME280;45001;52.218;5.154;2022-07-23T05:09:42;101962.13;;;22.36;48.86
58311;BME280;45001;52.218;5.154;2022-07-23T05:12:08;101962.13;;;22.36;49.06
58311;BME280;45001;52.218;5.154;2022-07-23T05:14:33;101960.47;;;22.35;48.85
58311;BME280;45001;52.218;5.154;2022-07-23T05:16:58;101962.13;;;22.36;49.04
58311;BME280;45001;52.218;5.154;2022-07-23T05:19:24;101970.28;;;22.36;48.95
58311;BME280;45001;52.218;5.154;2022-07-23T05:21:49;101960.47;;;22.35;49.10
58311;BME280;45001;52.218;5.154;2022-07-23T05:24:14;101965.91;;;22.35;48.99
58311;BME280;45001;52.218;5.154;2022-07-23T05:26:39;101956.91;;;22.34;48.88
58311;BME280;45001;52.218;5.154;2022-07-23T05:29:05;101964.22;;;22.34;49.05
58311;BME280;45001;52.218;5.154;2022-07-23T05:31:30;101965.69;;;22.30;49.27
58311;BME280;45001;52.218;5.154;2022-07-23T05:33:55;101970.06;;;22.31;49.11
58311;BME280;45001;52.218;5.154;2022-07-23T05:36:21;101968.81;;;22.33;48.98
58311;BME280;45001;52.218;5.154;2022-07-23T05:38:46;101979.69;;;22.33;49.10
58311;BME280;45001;52.218;5.154;2022-07-23T05:41:11;101975.09;;;22.34;48.83
58311;BME280;45001;52.218;5.154;2022-07-23T05:43:36;101976.34;;;22.31;49.04
58311;BME280;45001;52.218;5.154;2022-07-23T05:46:02;101981.78;;;22.31;48.87
58311;BME280;45001;52.218;5.154;2022-07-23T05:48:27;101987.22;;;22.31;49.03
58311;BME280;45001;52.218;5.154;2022-07-23T05:50:53;101987.84;;;22.33;48.96
58311;BME280;45001;52.218;5.154;2022-07-23T05:53:18;101986.78;;;22.34;48.97
58311;BME280;45001;52.218;5.154;2022-07-23T05:55:44;101988.69;;;22.34;48.83
58311;BME280;45001;52.218;5.154;2022-07-23T05:58:09;101989.69;;;22.33;48.98
58311;BME280;45001;52.218;5.154;2022-07-23T06:00:34;101989.69;;;22.33;49.04
58311;BME280;45001;52.218;5.154;2022-07-23T06:02:59;101995.38;;;22.31;48.95
58311;BME280;45001;52.218;5.154;2022-07-23T06:05:25;101996.00;;;22.33;48.98
58311;BME280;45001;52.218;5.154;2022-07-23T06:07:50;101992.66;;;22.31;49.03
58311;BME280;45001;52.218;5.154;2022-07-23T06:10:16;102000.56;;;22.33;48.83
58311;BME280;45001;52.218;5.154;2022-07-23T06:12:41;101996.81;;;22.34;48.74
58311;BME280;45001;52.218;5.154;2022-07-23T06:15:07;101989.06;;;22.31;48.74
58311;BME280;45001;52.218;5.154;2022-07-23T06:17:33;101993.91;;;22.35;48.71
58311;BME280;45001;52.218;5.154;2022-07-23T06:19:58;101987.66;;;22.35;48.94
58311;BME280;45001;52.218;5.154;2022-07-23T06:22:23;101990.56;;;22.33;48.80
58311;BME280;45001;52.218;5.154;2022-07-23T06:24:49;101991.41;;;22.34;48.79
58311;BME280;45001;52.218;5.154;2022-07-23T06:27:16;101993.28;;;22.33;48.98
58311;BME280;45001;52.218;5.154;2022-07-23T06:29:41;101997.84;;;22.33;48.91
58311;BME280;45001;52.218;5.154;2022-07-23T06:32:07;101999.94;;;22.31;49.10
58311;BME280;45001;52.218;5.154;2022-07-23T06:34:33;102005.19;;;22.32;48.95
58311;BME280;45001;52.218;5.154;2022-07-23T06:36:59;102003.44;;;22.24;49.82
58311;BME280;45001;52.218;5.154;2022-07-23T06:39:24;102010.59;;;22.32;50.31
58311;BME280;45001;52.218;5.154;2022-07-23T06:41:49;102014.00;;;22.41;50.36
58311;BME280;45001;52.218;5.154;2022-07-23T06:44:15;102009.59;;;22.40;49.89
58311;BME280;45001;52.218;5.154;2022-07-23T06:46:40;102010.66;;;22.39;49.71
58311;BME280;45001;52.218;5.154;2022-07-23T06:49:06;102012.75;;;22.37;49.73
58311;BME280;45001;52.218;5.154;2022-07-23T06:51:32;102011.28;;;22.41;49.69
58311;BME280;45001;52.218;5.154;2022-07-23T06:53:57;102008.97;;;22.38;50.04
58311;BME280;45001;52.218;5.154;2022-07-23T06:56:23;102017.13;;;22.38;49.86
58311;BME280;45001;52.218;5.154;2022-07-23T06:58:48;102020.88;;;22.37;50.41
58311;BME280;45001;52.218;5.154;2022-07-23T07:01:14;102014.84;;;22.41;49.94
58311;BME280;45001;52.218;5.154;2022-07-23T07:03:39;102018.38;;;22.42;50.16
58311;BME280;45001;52.218;5.154;2022-07-23T07:06:04;102019.44;;;22.41;50.31
58311;BME280;45001;52.218;5.154;2022-07-23T07:08:30;102025.50;;;22.43;50.31
58311;BME280;45001;52.218;5.154;2022-07-23T07:10:55;102017.75;;;22.40;50.79
58311;BME280;45001;52.218;5.154;2022-07-23T07:13:20;102017.56;;;22.41;50.39
58311;BME280;45001;52.218;5.154;2022-07-23T07:15:46;102017.75;;;22.40;50.48
58311;BME280;45001;52.218;5.154;2022-07-23T07:18:11;102014.84;;;22.41;50.52
58311;BME280;45001;52.218;5.154;2022-07-23T07:20:36;102023.81;;;22.42;50.44
58311;BME280;45001;52.218;5.154;2022-07-23T07:23:01;102028.44;;;22.41;50.43
58311;BME280;45001;52.218;5.154;2022-07-23T07:25:27;102034.06;;;22.40;50.33
58311;BME280;45001;52.218;5.154;2022-07-23T07:27:53;102035.75;;;22.41;50.30
58311;BME280;45001;52.218;5.154;2022-07-23T07:30:18;102036.56;;;22.41;50.27
58311;BME280;45001;52.218;5.154;2022-07-23T07:32:43;102033.88;;;22.41;50.09
58311;BME280;45001;52.218;5.154;2022-07-23T07:35:09;102035.34;;;22.44;49.99
58311;BME280;45001;52.218;5.154;2022-07-23T07:37:34;102043.91;;;22.48;50.26
58311;BME280;45001;52.218;5.154;2022-07-23T07:40:00;102048.28;;;22.42;50.02
58311;BME280;45001;52.218;5.154;2022-07-23T07:42:25;102048.53;;;22.47;49.87
58311;BME280;45001;52.218;5.154;2022-07-23T07:44:51;102048.34;;;22.49;49.97
58311;BME280;45001;52.218;5.154;2022-07-23T07:47:16;102054.59;;;22.49;49.83
58311;BME280;45001;52.218;5.154;2022-07-23T07:49:42;102042.91;;;22.49;49.57
58311;BME280;45001;52.218;5.154;2022-07-23T07:52:08;102045.63;;;22.49;49.69
58311;BME280;45001;52.218;5.154;2022-07-23T07:54:33;102048.78;;;22.52;49.63
58311;BME280;45001;52.218;5.154;2022-07-23T07:56:58;102050.44;;;22.53;49.62
58311;BME280;45001;52.218;5.154;2022-07-23T07:59:24;102047.72;;;22.53;49.52
58311;BME280;45001;52.218;5.154;2022-07-23T08:01:49;102052.13;;;22.54;49.52
58311;BME280;45001;52.218;5.154;2022-07-23T08:04:14;102044.59;;;22.56;49.43
58311;BME280;45001;52.218;5.154;2022-07-23T08:06:40;102048.38;;;22.55;49.23
58311;BME280;45001;52.218;5.154;2022-07-23T08:09:05;102060.28;;;22.54;49.30
58311;BME280;45001;52.218;5.154;2022-07-23T08:11:30;102054.00;;;22.54;49.00
58311;BME280;45001;52.218;5.154;2022-07-23T08:13:55;102057.38;;;22.56;49.32
58311;BME280;45001;52.218;5.154;2022-07-23T08:16:21;102049.22;;;22.56;49.18
58311;BME280;45001;52.218;5.154;2022-07-23T08:18:46;102058.81;;;22.58;49.29
58311;BME280;45001;52.218;5.154;2022-07-23T08:21:11;102054.22;;;22.59;49.15
58311;BME280;45001;52.218;5.154;2022-07-23T08:23:37;102054.03;;;22.60;49.11
58311;BME280;45001;52.218;5.154;2022-07-23T08:26:02;102055.09;;;22.59;49.09
58311;BME280;45001;52.218;5.154;2022-07-23T08:28:27;102049.00;;;22.57;48.92
58311;BME280;45001;52.218;5.154;2022-07-23T08:30:53;102057.16;;;22.57;49.08
58311;BME280;45001;52.218;5.154;2022-07-23T08:33:18;102057.16;;;22.57;49.22
58311;BME280;45001;52.218;5.154;2022-07-23T08:35:48;102051.50;;;22.59;49.01
58311;BME280;45001;52.218;5.154;2022-07-23T08:38:16;102050.69;;;22.58;48.56
58311;BME280;45001;52.218;5.154;2022-07-23T08:40:45;102049.66;;;22.59;48.75
58311;BME280;45001;52.218;5.154;2022-07-23T08:43:16;102049.66;;;22.59;48.87
58311;BME280;45001;52.218;5.154;2022-07-23T08:45:45;102052.38;;;22.59;49.00
58311;BME280;45001;52.218;5.154;2022-07-23T08:48:15;102049.66;;;22.59;49.57
58311;BME280;45001;52.218;5.154;2022-07-23T08:50:43;102053.19;;;22.60;52.05
58311;BME280;45001;52.218;5.154;2022-07-23T08:53:09;102049.22;;;22.62;51.32
58311;BME280;45001;52.218;5.154;2022-07-23T08:55:36;102061.78;;;22.63;50.87
58311;BME280;45001;52.218;5.154;2022-07-23T08:58:02;102053.63;;;22.63;51.24
58311;BME280;45001;52.218;5.154;2022-07-23T09:00:28;102060.53;;;22.66;51.30
58311;BME280;45001;52.218;5.154;2022-07-23T09:02:54;102067.03;;;22.65;50.47
58311;BME280;45001;52.218;5.154;2022-07-23T09:05:20;102059.31;;;22.69;50.42
58311;BME280;45001;52.218;5.154;2022-07-23T09:08:12;102062.22;;;22.67;50.22
58311;BME280;45001;52.218;5.154;2022-07-23T09:10:57;102063.06;;;22.68;50.16
58311;BME280;45001;52.218;5.154;2022-07-23T09:18:46;102060.97;;;22.70;50.23
58311;BME280;45001;52.218;5.154;2022-07-23T09:21:19;102062.03;;;22.69;50.31
58311;BME280;45001;52.218;5.154;2022-07-23T09:23:58;102068.09;;;22.71;50.16
58311;BME280;45001;52.218;5.154;2022-07-23T09:26:40;102064.31;;;22.72;50.17
58311;BME280;45001;52.218;5.154;2022-07-23T09:29:22;102069.75;;;22.72;49.92
58311;BME280;45001;52.218;5.154;2022-07-23T09:31:54;102066.22;;;22.71;50.15
58311;BME280;45001;52.218;5.154;2022-07-23T09:36:54;102067.69;;;22.74;50.21
58311;BME280;45001;52.218;5.154;2022-07-23T09:39:31;102067.69;;;22.74;50.12
58311;BME280;45001;52.218;5.154;2022-07-23T09:41:57;102077.13;;;22.78;50.42
58311;BME280;45001;52.218;5.154;2022-07-23T09:44:23;102074.63;;;22.76;50.72
58311;BME280;45001;52.218;5.154;2022-07-23T09:46:50;102065.63;;;22.76;50.89
58311;BME280;45001;52.218;5.154;2022-07-23T09:49:20;102061.84;;;22.77;51.20
58311;BME280;45001;52.218;5.154;2022-07-23T09:51:52;102073.34;;;22.79;51.26
58311;BME280;45001;52.218;5.154;2022-07-23T09:54:35;102076.06;;;22.79;51.14
58311;BME280;45001;52.218;5.154;2022-07-23T09:57:04;102079.22;;;22.76;51.03
58311;BME280;45001;52.218;5.154;2022-07-23T09:59:35;102072.13;;;22.81;50.93
58311;BME280;45001;52.218;5.154;2022-07-23T10:02:01;102071.50;;;22.86;51.14
58311;BME280;45001;52.218;5.154;2022-07-23T10:04:28;102069.44;;;22.88;51.12
58311;BME280;45001;52.218;5.154;2022-07-23T10:06:57;102072.16;;;22.88;50.93
58311;BME280;45001;52.218;5.154;2022-07-23T10:09:27;102071.94;;;22.90;51.04
58311;BME280;45001;52.218;5.154;2022-07-23T10:11:58;102074.88;;;22.88;50.93
58311;BME280;45001;52.218;5.154;2022-07-23T10:14:38;102072.78;;;22.90;50.97
58311;BME280;45001;52.218;5.154;2022-07-23T10:17:04;102073.41;;;22.92;50.44
58311;BME280;45001;52.218;5.154;2022-07-23T10:19:31;102070.69;;;22.92;50.46
58311;BME280;45001;52.218;5.154;2022-07-23T10:22:20;102064.44;;;22.92;50.50
58311;BME280;45001;52.218;5.154;2022-07-23T10:27:47;102069.47;;;22.95;50.44
58311;BME280;45001;52.218;5.154;2022-07-23T10:30:26;102064.22;;;22.93;50.39
58311;BME280;45001;52.218;5.154;2022-07-23T10:33:20;102073.41;;;22.92;50.45
58311;BME280;45001;52.218;5.154;2022-07-23T10:36:11;102066.94;;;22.93;50.44
58311;BME280;45001;52.218;5.154;2022-07-23T10:38:54;102064.66;;;22.97;50.69
58311;BME280;45001;52.218;5.154;2022-07-23T10:41:36;102065.34;;;23.06;54.10
58311;BME280;45001;52.218;5.154;2022-07-23T10:44:12;102061.31;;;23.01;53.87
58311;BME280;45001;52.218;5.154;2022-07-23T10:49:39;102056.94;;;23.00;53.14
58311;BME280;45001;52.218;5.154;2022-07-23T10:57:25;102057.84;;;23.14;53.17
58311;BME280;45001;52.218;5.154;2022-07-23T11:02:35;102059.66;;;23.00;53.18
58311;BME280;45001;52.218;5.154;2022-07-23T11:05:04;102055.66;;;22.96;53.10
58311;BME280;45001;52.218;5.154;2022-07-23T11:07:31;102055.22;;;22.93;53.13
58311;BME280;45001;52.218;5.154;2022-07-23T11:09:56;102051.03;;;22.90;52.93
58311;BME280;45001;52.218;5.154;2022-07-23T11:17:25;102054.16;;;22.87;52.60
58311;BME280;45001;52.218;5.154;2022-07-23T11:22:46;102051.44;;;22.87;52.63
58311;BME280;45001;52.218;5.154;2022-07-23T11:25:14;102049.75;;;22.86;52.41
58311;BME280;45001;52.218;5.154;2022-07-23T11:27:53;102060.84;;;22.84;52.27
58311;BME280;45001;52.218;5.154;2022-07-23T11:32:54;102054.38;;;22.86;52.07
58311;BME280;45001;52.218;5.154;2022-07-23T11:35:28;102070.47;;;22.87;51.98
58311;BME280;45001;52.218;5.154;2022-07-23T11:38:22;102066.91;;;22.87;52.20
58311;BME280;45001;52.218;5.154;2022-07-23T11:40:50;102075.06;;;22.87;51.70
58311;BME280;45001;52.218;5.154;2022-07-23T11:43:16;102071.50;;;22.86;51.67
58311;BME280;45001;52.218;5.154;2022-07-23T11:45:44;102066.06;;;22.86;51.53
58311;BME280;45001;52.218;5.154;2022-07-23T11:48:19;102066.06;;;22.86;51.59
58311;BME280;45001;52.218;5.154;2022-07-23T11:50:44;102064.41;;;22.85;51.27
58311;BME280;45001;52.218;5.154;2022-07-23T11:53:10;102058.97;;;22.85;51.31
58311;BME280;45001;52.218;5.154;2022-07-23T11:55:37;102058.97;;;22.85;51.23
58311;BME280;45001;52.218;5.154;2022-07-23T11:58:02;102062.53;;;22.86;51.16
58311;BME280;45001;52.218;5.154;2022-07-23T12:00:30;102070.47;;;22.87;51.02
58311;BME280;45001;52.218;5.154;2022-07-23T12:03:01;102061.47;;;22.87;50.96
58311;BME280;45001;52.218;5.154;2022-07-23T12:05:33;102063.34;;;22.86;50.88
58311;BME280;45001;52.218;5.154;2022-07-23T12:08:00;102060.63;;;22.86;50.71
58311;BME280;45001;52.218;5.154;2022-07-23T12:10:34;102056.25;;;22.85;50.74
58311;BME280;45001;52.218;5.154;2022-07-23T12:13:05;102052.47;;;22.86;50.60
58311;BME280;45001;52.218;5.154;2022-07-23T12:15:36;102048.94;;;22.86;50.60
58311;BME280;45001;52.218;5.154;2022-07-23T12:18:05;102040.97;;;22.84;50.55
58311;BME280;45001;52.218;5.154;2022-07-23T12:20:34;102043.50;;;22.86;50.49
58311;BME280;45001;52.218;5.154;2022-07-23T12:23:03;102048.94;;;22.86;50.37
58311;BME280;45001;52.218;5.154;2022-07-23T12:25:31;102038.88;;;22.86;50.25
58311;BME280;45001;52.218;5.154;2022-07-23T12:28:08;102038.88;;;22.86;50.35
58311;BME280;45001;52.218;5.154;2022-07-23T12:30:36;102043.50;;;22.86;50.14
58311;BME280;45001;52.218;5.154;2022-07-23T12:33:03;102043.50;;;22.86;50.10
58311;BME280;45001;52.218;5.154;2022-07-23T12:35:43;102042.66;;;22.85;50.12
58311;BME280;45001;52.218;5.154;2022-07-23T12:38:14;102039.94;;;22.85;50.01
58311;BME280;45001;52.218;5.154;2022-07-23T12:40:51;102033.44;;;22.86;50.06
58311;BME280;45001;52.218;5.154;2022-07-23T12:43:25;102026.97;;;22.87;49.83
58311;BME280;45001;52.218;5.154;2022-07-23T12:45:57;102034.50;;;22.85;49.78
58311;BME280;45001;52.218;5.154;2022-07-23T12:48:31;102030.53;;;22.88;49.90
58311;BME280;45001;52.218;5.154;2022-07-23T12:51:01;102019.84;;;22.86;49.88
58311;BME280;45001;52.218;5.154;2022-07-23T12:55:57;102025.09;;;22.88;49.82
58311;BME280;45001;52.218;5.154;2022-07-23T12:58:23;102025.09;;;22.88;49.63
58311;BME280;45001;52.218;5.154;2022-07-23T13:01:04;102025.28;;;22.86;49.64
58311;BME280;45001;52.218;5.154;2022-07-23T13:03:38;102032.19;;;22.89;49.71
58311;BME280;45001;52.218;5.154;2022-07-23T13:06:06;102025.09;;;22.88;49.63
58311;BME280;45001;52.218;5.154;2022-07-23T13:08:32;102017.75;;;22.88;49.47
58311;BME280;45001;52.218;5.154;2022-07-23T13:10:59;102023.19;;;22.88;49.55
58311;BME280;45001;52.218;5.154;2022-07-23T13:13:26;102020.47;;;22.88;49.50
58311;BME280;45001;52.218;5.154;2022-07-23T13:15:52;102018.81;;;22.87;49.53
58311;BME280;45001;52.218;5.154;2022-07-23T13:18:18;102023.19;;;22.88;49.40
58311;BME280;45001;52.218;5.154;2022-07-23T13:20:45;102022.16;;;22.89;49.43
58311;BME280;45001;52.218;5.154;2022-07-23T13:23:11;102021.31;;;22.89;49.45
58311;BME280;45001;52.218;5.154;2022-07-23T13:25:36;102019.44;;;22.89;49.45
58311;BME280;45001;52.218;5.154;2022-07-23T13:28:02;102023.00;;;22.90;49.33